DW9106 Madrid ES current weather conditions

sailwx.info

Wind from 292

Air temperature 3.9° C
Dewpoint 0.2° C

Last reported at 2014-Dec-22 04:43 UTC.
Time now 2014-Dec-22 06:19 UTC

Location: N 40°23' W 003°38'.
View on Google Maps.

See reports from other nearby stations

  
Tides and Currents Weather Stations Pressure Air Temp Water Temp Dewpoint Dewpoint Depression Visibility Wind Speed Wind Dir Waves Ship Positions
date/time (UTC)wind fromknots sea level pressurealtimeterstation pressurevisibilityair tempwater tempwave heightnotes
2014-Dec-22 05:43 013 3.3
2014-Dec-22 05:28 296 3.9
2014-Dec-22 05:13 286 0 gusting 2 3.9
2014-Dec-22 04:58 290 1 gusting 3 3.9
2014-Dec-22 04:43 292 3.9
2014-Dec-22 04:28 296 1 gusting 3 3.9
2014-Dec-22 04:13 304 0 gusting 3 3.9
2014-Dec-22 03:58 294 4.4
2014-Dec-22 03:43 292 0 gusting 3 4.4
2014-Dec-22 03:28 295 0 gusting 4 4.4
2014-Dec-22 03:13 282 1 gusting 3 4.4
2014-Dec-22 02:58 292 2 gusting 4 4.4
2014-Dec-22 02:43 305 1 gusting 4 4.4
2014-Dec-22 02:28 288 1 gusting 2 4.4
2014-Dec-22 02:13 267 0 gusting 3 4.4
2014-Dec-22 01:58 095 4.4
2014-Dec-22 01:43 272 4.4
2014-Dec-22 01:28 300 2 gusting 4 5.0
2014-Dec-22 01:13 288 1 gusting 3 5.0
2014-Dec-22 00:58 038 5.6
2014-Dec-22 00:43 040 1 gusting 4 6.1
2014-Dec-22 00:27 076 0 gusting 3 6.7
2014-Dec-22 00:12 059 1 gusting 6 7.2
2014-Dec-21 23:57 065 2 gusting 6 7.2
2014-Dec-21 23:42 038 4 gusting 7 7.2
2014-Dec-21 23:27 056 2 gusting 5 6.7
2014-Dec-21 23:12 069 0 gusting 4 6.7
2014-Dec-21 22:57 033 6.7
2014-Dec-21 22:42 016 0 gusting 3 6.7
2014-Dec-21 22:27 039 7.2
2014-Dec-21 22:12 046 0 gusting 4 7.2
2014-Dec-21 21:57 038 2 gusting 7 7.8
2014-Dec-21 21:42 057 1 gusting 3 7.2
2014-Dec-21 21:27 078 7.8
2014-Dec-21 21:12 048 0 gusting 4 8.3
2014-Dec-21 20:57 057 0 gusting 4 8.3
2014-Dec-21 20:42 084 8.3
2014-Dec-21 20:27 084 8.3
2014-Dec-21 20:12 084 8.3
2014-Dec-21 19:57 084 8.3
2014-Dec-21 19:42 084 8.3
2014-Dec-21 19:27 084 8.3
2014-Dec-21 19:12 084 8.3
2014-Dec-21 18:57 084 8.9
2014-Dec-21 18:42 084 8.9
2014-Dec-21 18:27 084 8.9
2014-Dec-21 18:12 084 9.4
2014-Dec-21 17:57 084 9.4
2014-Dec-21 17:42 084 10.0
2014-Dec-21 17:27 084 10.6
2014-Dec-21 17:12 084 11.1
2014-Dec-21 16:57 084 11.7
2014-Dec-21 16:42 084 12.2
2014-Dec-21 16:27 084 12.2
2014-Dec-21 16:12 084 12.2
2014-Dec-21 15:57 052 0 gusting 2 12.8
2014-Dec-21 15:42 078 12.8
2014-Dec-21 15:27 063 1 gusting 3 12.8
2014-Dec-21 15:12 073 0 gusting 2 12.8
2014-Dec-21 14:57 037 13.3
2014-Dec-21 14:42 135 13.3
2014-Dec-21 14:27 134 1 gusting 4 12.8
2014-Dec-21 14:12 041 0 gusting 3 12.8
2014-Dec-21 13:57 074 0 gusting 3 12.2
2014-Dec-21 13:42 120 0 gusting 5 11.7
2014-Dec-21 13:27 035 2 gusting 6 11.7
2014-Dec-21 13:12 066 3 gusting 7 11.7
2014-Dec-21 12:57 025 3 gusting 8 11.1
2014-Dec-21 12:42 317 6 gusting 9 11.1
2014-Dec-21 12:27 073 4 gusting 9 10.6
2014-Dec-21 12:12 057 3 gusting 9 10.6
2014-Dec-21 11:57 094 4 gusting 9 10.0
2014-Dec-21 11:41 049 6 gusting 13 9.4
2014-Dec-21 11:26 055 6 gusting 9 9.4
2014-Dec-21 11:11 050 5 gusting 9 9.4
2014-Dec-21 10:56 020 3 gusting 8 8.9
2014-Dec-21 10:41 081 3 gusting 9 8.3
2014-Dec-21 10:26 032 4 gusting 8 7.8
2014-Dec-21 10:11 025 4 gusting 8 7.2
2014-Dec-21 09:56 059 4 gusting 8 7.2
2014-Dec-21 09:41 048 2 gusting 8 6.7
2014-Dec-21 09:26 025 4 gusting 9 6.1
2014-Dec-21 09:11 052 3 gusting 7 6.1
2014-Dec-21 08:56 048 3 gusting 7 5.6
2014-Dec-21 08:41 051 3 gusting 6 5.6
2014-Dec-21 08:26 054 3 gusting 7 5.0
2014-Dec-21 08:11 015 2 gusting 6 5.0
2014-Dec-21 07:55 060 3 gusting 6 4.4
2014-Dec-21 07:40 055 2 gusting 6 4.4
2014-Dec-21 07:25 340 3 gusting 6 4.4
2014-Dec-21 07:10 060 2 gusting 6 5.0
2014-Dec-21 06:55 040 2 gusting 6 5.0
2014-Dec-21 06:40 059 1 gusting 6 5.0
2014-Dec-21 06:25 057 3 gusting 7 5.6
2014-Dec-21 06:10 038 4 gusting 9 5.6
2014-Dec-21 05:55 047 4 gusting 7 5.6
2014-Dec-21 05:40 048 3 gusting 6 5.6
2014-Dec-21 05:25 057 3 gusting 6 5.6
2014-Dec-21 05:10 034 0 gusting 4 5.0
2014-Dec-21 04:55 044 5.0
2014-Dec-21 04:40 044 5.0
2014-Dec-21 04:25 039 1 gusting 4 5.0
2014-Dec-21 04:10 051 3 gusting 6 5.6
2014-Dec-21 03:55 043 3 gusting 7 5.6
2014-Dec-21 03:40 053 4 gusting 6 5.6
2014-Dec-21 03:25 040 2 gusting 5 5.6
2014-Dec-21 03:10 053 4 gusting 7 5.6
2014-Dec-21 02:55 059 4 gusting 8 5.6
2014-Dec-21 02:40 037 4 gusting 6 5.6
2014-Dec-21 02:25 046 4 gusting 8 5.6
2014-Dec-21 02:10 051 2 gusting 6 6.1
2014-Dec-21 01:55 060 2 gusting 6 6.1
2014-Dec-21 01:40 022 3 gusting 6 6.1
2014-Dec-21 01:25 030 3 gusting 8 6.1
2014-Dec-21 01:10 042 5 gusting 8 6.1
2014-Dec-21 00:55 036 3 gusting 8 6.1
2014-Dec-21 00:40 048 3 gusting 8 6.1
2014-Dec-21 00:25 046 6 gusting 10 6.7
2014-Dec-21 00:10 035 5 gusting 10 7.2
2014-Dec-20 23:55 025 5 gusting 10 7.2
2014-Dec-20 23:40 040 5 gusting 9 7.2
2014-Dec-20 23:25 046 4 gusting 7 7.2
2014-Dec-20 23:10 056 3 gusting 7 7.8
2014-Dec-20 22:55 030 5 gusting 10 7.8
2014-Dec-20 22:40 064 5 gusting 12 8.3
2014-Dec-20 22:25 055 5 gusting 8 8.3
2014-Dec-20 22:10 031 4 gusting 9 8.3
2014-Dec-20 21:55 062 5 gusting 8 8.9
2014-Dec-20 21:40 035 2 gusting 6 9.4
2014-Dec-20 21:25 019 3 gusting 10 10.0
2014-Dec-20 21:10 065 4 gusting 7 10.0
2014-Dec-20 20:55 042 3 gusting 6 10.0
2014-Dec-20 20:40 071 3 gusting 8 10.6
2014-Dec-20 20:25 049 3 gusting 7 10.6
2014-Dec-20 20:10 045 3 gusting 6 10.6
2014-Dec-20 19:55 036 2 gusting 6 10.6
2014-Dec-20 19:40 039 3 gusting 6 11.1
2014-Dec-20 19:25 042 2 gusting 6 11.1
2014-Dec-20 19:10 022 2 gusting 6 11.1
2014-Dec-20 18:55 065 2 gusting 4 11.1
2014-Dec-20 18:40 028 0 gusting 2 11.1
2014-Dec-20 18:25 046 1 gusting 3 11.7
2014-Dec-20 18:10 048 2 gusting 4 11.7
2014-Dec-20 17:54 049 1 gusting 3 12.2
2014-Dec-20 17:39 037 2 gusting 6 12.8
2014-Dec-20 17:24 031 1 gusting 4 12.8
2014-Dec-20 17:09 051 12.8
2014-Dec-20 16:54 051 0 gusting 3 13.3
2014-Dec-20 16:39 044 0 gusting 5 13.9
2014-Dec-20 16:24 058 0 gusting 2 13.9
2014-Dec-20 16:09 058 0 gusting 2 13.9
2014-Dec-20 15:54 055 13.9
2014-Dec-20 15:39 042 1 gusting 4 13.9
2014-Dec-20 15:24 044 1 gusting 4 13.9
2014-Dec-20 15:09 045 0 gusting 4 14.4
2014-Dec-20 14:54 044 2 gusting 6 13.9
2014-Dec-20 14:39 051 0 gusting 3 14.4
2014-Dec-20 14:24 051 1 gusting 4 13.9
2014-Dec-20 14:09 030 1 gusting 5 13.3
2014-Dec-20 13:54 080 1 gusting 4 13.3
2014-Dec-20 13:39 049 3 gusting 6 12.8
2014-Dec-20 13:24 045 0 gusting 4 12.2
2014-Dec-20 13:09 040 3 gusting 6 12.2
2014-Dec-20 12:54 062 2 gusting 5 12.2
2014-Dec-20 12:39 045 1 gusting 3 11.7
2014-Dec-20 12:24 031 1 gusting 4 11.7
2014-Dec-20 12:09 063 2 gusting 6 11.1
2014-Dec-20 11:54 082 1 gusting 6 10.6
2014-Dec-20 11:39 086 10.6
2014-Dec-20 11:24 040 10.0
2014-Dec-20 11:09 057 0 gusting 3 9.4
2014-Dec-20 10:54 034 0 gusting 4 8.9
2014-Dec-20 10:39 274 7.8
2014-Dec-20 10:24 062 0 gusting 6 7.2
2014-Dec-20 10:09 082 3 gusting 6 6.7
2014-Dec-20 09:53 033 0 gusting 3 6.7
2014-Dec-20 09:38 105 6.1
2014-Dec-20 09:23 109 0 gusting 1 5.6
2014-Dec-20 09:08 050 5.0
2014-Dec-20 08:53 050 4.4
2014-Dec-20 08:38 050 0 gusting 2 3.3
2014-Dec-20 08:23 050 2.8
2014-Dec-20 08:08 355 0 gusting 2 2.2
2014-Dec-20 07:53 348 1.7
2014-Dec-20 07:38 348 1.1
2014-Dec-20 07:23 348 1.1
2014-Dec-20 07:08 348 1.1
2014-Dec-20 06:53 348 1.1
2014-Dec-20 06:38 348 1.1
2014-Dec-20 06:23 348 1.1
2014-Dec-20 06:08 348 1.1